createdAt,value
2023-01-02T00:01:51.503Z,99267.22
2023-01-02T00:04:24.508Z,99257.50
2023-01-02T00:06:57.283Z,99259.66
2023-01-02T00:09:30.016Z,99263.13
2023-01-02T00:12:03.458Z,99264.25
2023-01-02T00:14:37.650Z,99258.19
2023-01-02T00:17:10.372Z,99256.84
2023-01-02T00:19:43.121Z,99256.41
2023-01-02T00:22:15.905Z,99260.09
2023-01-02T00:24:48.753Z,99262.13
2023-01-02T00:27:21.620Z,99260.34
2023-01-02T00:29:55.755Z,99257.41
2023-01-02T00:32:29.223Z,99247.31
2023-01-02T00:35:01.981Z,99253.16
2023-01-02T00:37:34.827Z,99249.13
2023-01-02T00:40:13.608Z,99249.22
2023-01-02T00:42:46.408Z,99254.63
2023-01-02T00:45:20.537Z,99253.75
2023-01-02T00:47:53.386Z,99252.16
2023-01-02T00:50:26.351Z,99248.22
2023-01-02T00:52:59.120Z,99242.72
2023-01-02T00:55:31.861Z,99240.72
2023-01-02T00:58:04.725Z,99239.13
2023-01-02T01:00:41.228Z,99242.03
2023-01-02T01:03:13.995Z,99239.69
2023-01-02T01:05:46.928Z,99234.00
2023-01-02T01:08:19.655Z,99234.00
2023-01-02T01:10:52.759Z,99234.88
2023-01-02T01:13:25.541Z,99233.97
2023-01-02T01:16:06.093Z,99242.25
2023-01-02T01:18:39.114Z,99231.91
2023-01-02T01:21:13.857Z,99226.97
2023-01-02T01:23:51.193Z,99231.31
2023-01-02T01:26:24.310Z,99234.03
2023-01-02T01:28:57.695Z,99245.88
2023-01-02T01:31:31.833Z,99247.91
2023-01-02T01:34:04.626Z,99243.19
2023-01-02T01:36:37.581Z,99247.44
2023-01-02T01:39:10.320Z,99246.31
2023-01-02T01:41:43.087Z,99240.16
2023-01-02T01:44:47.208Z,99234.53
2023-01-02T01:47:26.992Z,99227.88
2023-01-02T01:50:06.105Z,99222.59
2023-01-02T01:52:43.156Z,99222.38
2023-01-02T01:55:20.090Z,99223.28
2023-01-02T01:57:57.372Z,99220.81
2023-01-02T02:00:30.794Z,99225.38
2023-01-02T02:03:10.257Z,99221.03
2023-01-02T02:05:44.678Z,99216.41
2023-01-02T02:08:20.752Z,99214.25
2023-01-02T02:10:54.443Z,99204.59
2023-01-02T02:13:27.484Z,99198.38
2023-01-02T02:16:11.391Z,99196.59
2023-01-02T02:18:59.559Z,99199.25
2023-01-02T02:21:49.010Z,99184.56
2023-01-02T02:24:44.817Z,99178.28
2023-01-02T02:27:49.126Z,99178.00
2023-01-02T02:30:24.647Z,99171.81
2023-01-02T02:33:21.344Z,99178.78
2023-01-02T02:36:04.207Z,99178.50
2023-01-02T02:38:49.035Z,99178.50
2023-01-02T02:41:34.668Z,99184.78
2023-01-02T02:44:21.919Z,99178.44
2023-01-02T02:47:00.916Z,99179.75
2023-01-02T02:49:47.379Z,99176.22
2023-01-02T02:52:27.831Z,99158.34
2023-01-02T02:55:02.530Z,99158.47
2023-01-02T02:57:37.867Z,99164.19
2023-01-02T03:00:15.150Z,99163.63
2023-01-02T03:02:49.951Z,99154.19
2023-01-02T03:05:29.583Z,99164.59
2023-01-02T03:08:10.679Z,99161.81
2023-01-02T03:10:50.943Z,99155.88
2023-01-02T03:13:40.959Z,99148.81
2023-01-02T03:16:21.293Z,99148.16
2023-01-02T03:19:02.741Z,99143.53
2023-01-02T03:21:38.012Z,99154.41
2023-01-02T03:24:15.100Z,99148.91
2023-01-02T03:26:51.151Z,99140.28
2023-01-02T03:29:32.131Z,99146.66
2023-01-02T03:32:09.853Z,99157.44
2023-01-02T03:34:49.144Z,99156.75
2023-01-02T03:37:27.428Z,99156.00
2023-01-02T03:40:04.880Z,99154.31
2023-01-02T03:42:44.168Z,99150.94
2023-01-02T03:45:21.919Z,99149.44
2023-01-02T03:48:10.906Z,99153.03
2023-01-02T03:50:51.084Z,99157.06
2023-01-02T03:53:25.004Z,99157.06
2023-01-02T03:56:08.548Z,99157.25
2023-01-02T03:58:46.772Z,99152.03
2023-01-02T04:01:32.058Z,99155.22
2023-01-02T04:04:12.671Z,99143.00
2023-01-02T04:06:52.704Z,99141.66
2023-01-02T04:09:28.488Z,99138.88
2023-01-02T04:12:06.148Z,99146.34
2023-01-02T04:14:45.143Z,99152.06
2023-01-02T04:17:21.266Z,99152.66
2023-01-02T04:20:00.249Z,99141.13
2023-01-02T04:22:41.302Z,99149.81
2023-01-02T04:25:16.591Z,99150.84
2023-01-02T04:27:54.264Z,99156.88
2023-01-02T04:30:30.267Z,99160.00
2023-01-02T04:33:09.015Z,99150.78
2023-01-02T04:35:41.902Z,99156.94
2023-01-02T04:38:16.120Z,99158.13
2023-01-02T04:40:49.866Z,99158.13
2023-01-02T04:43:22.845Z,99149.72
2023-01-02T04:45:55.744Z,99149.34
2023-01-02T04:48:28.571Z,99144.47
2023-01-02T04:51:01.322Z,99142.53
2023-01-02T04:53:35.475Z,99146.34
2023-01-02T04:56:08.904Z,99148.97
2023-01-02T04:58:41.668Z,99155.59
2023-01-02T05:01:16.689Z,99154.97
2023-01-02T05:03:52.706Z,99153.75
2023-01-02T05:06:25.806Z,99160.03
2023-01-02T05:09:00.894Z,99156.16
2023-01-02T05:11:33.646Z,99159.94
2023-01-02T05:14:07.813Z,99161.56
2023-01-02T05:16:40.914Z,99161.22
2023-01-02T05:19:13.954Z,99163.66
2023-01-02T05:22:04.259Z,99153.44
2023-01-02T05:24:38.431Z,99172.91
2023-01-02T05:27:11.220Z,99175.28
2023-01-02T05:29:44.190Z,99176.81
2023-01-02T05:32:16.958Z,99173.56
2023-01-02T05:34:49.942Z,99171.34
2023-01-02T05:37:22.702Z,99167.28
2023-01-02T05:39:57.042Z,99154.97
2023-01-02T05:42:29.797Z,99157.16
2023-01-02T05:45:02.641Z,99159.16
2023-01-02T05:47:35.497Z,99158.09
2023-01-02T05:50:09.799Z,99163.34
2023-01-02T05:52:45.885Z,99165.88
2023-01-02T05:55:20.484Z,99171.41
2023-01-02T05:57:55.639Z,99167.88
2023-01-02T06:00:28.433Z,99175.75
2023-01-02T06:03:01.229Z,99177.47
2023-01-02T06:05:35.770Z,99166.78
2023-01-02T06:08:08.510Z,99169.28
2023-01-02T06:10:50.731Z,99178.28
2023-01-02T06:13:23.477Z,99179.22
2023-01-02T06:15:56.358Z,99175.03
2023-01-02T06:18:31.065Z,99168.63
2023-01-02T06:21:06.467Z,99174.75
2023-01-02T06:23:39.855Z,99174.41
2023-01-02T06:26:16.338Z,99176.94
2023-01-02T06:28:51.268Z,99175.56
2023-01-02T06:31:26.830Z,99165.88
2023-01-02T06:34:01.608Z,99172.69
2023-01-02T06:36:35.485Z,99170.69
2023-01-02T06:39:08.359Z,99177.00
2023-01-02T06:41:42.515Z,99186.16
2023-01-02T06:44:16.529Z,99194.75
2023-01-02T06:46:49.458Z,99192.66
2023-01-02T06:49:22.267Z,99199.88
2023-01-02T06:51:55.033Z,99195.81
2023-01-02T06:54:27.879Z,99191.75
2023-01-02T06:57:02.021Z,99213.63
2023-01-02T06:59:34.823Z,99209.75
2023-01-02T07:02:07.761Z,99206.28
2023-01-02T07:04:41.514Z,99207.44
2023-01-02T07:07:14.317Z,99210.41
2023-01-02T07:09:47.120Z,99216.53
2023-01-02T07:12:21.175Z,99211.81
2023-01-02T07:14:53.965Z,99210.84
2023-01-02T07:17:26.711Z,99218.41
2023-01-02T07:20:02.234Z,99222.13
2023-01-02T07:22:35.570Z,99240.84
2023-01-02T07:25:09.249Z,99234.91
2023-01-02T07:27:43.379Z,99235.59
2023-01-02T07:30:16.530Z,99252.00
2023-01-02T07:32:49.487Z,99242.44
2023-01-02T07:35:22.458Z,99257.00
2023-01-02T07:37:55.208Z,99258.69
2023-01-02T07:40:32.146Z,99257.66
2023-01-02T07:43:06.772Z,99260.44
2023-01-02T07:45:42.516Z,99262.28
2023-01-02T07:48:17.780Z,99256.38
2023-01-02T07:50:50.588Z,99261.81
2023-01-02T07:53:23.628Z,99253.22
2023-01-02T07:55:56.930Z,99260.66
2023-01-02T07:58:31.745Z,99262.28
2023-01-02T08:01:09.306Z,99267.34
2023-01-02T08:03:42.411Z,99271.63
2023-01-02T08:06:17.242Z,99273.94
2023-01-02T08:08:50.358Z,99274.06
2023-01-02T08:11:23.983Z,99286.78
2023-01-02T08:13:58.613Z,99295.00
2023-01-02T08:16:31.465Z,99286.13
2023-01-02T08:19:04.256Z,99290.91
2023-01-02T08:21:37.212Z,99296.56
2023-01-02T08:24:10.248Z,99293.28
2023-01-02T08:26:44.718Z,99291.91
2023-01-02T08:29:19.161Z,99299.53
2023-01-02T08:31:51.972Z,99299.97
2023-01-02T08:34:24.762Z,99302.16
2023-01-02T08:36:57.563Z,99301.34
2023-01-02T08:39:31.348Z,99299.50
2023-01-02T08:42:04.318Z,99303.09
2023-01-02T08:44:38.640Z,99310.28
2023-01-02T08:47:11.558Z,99306.69
2023-01-02T08:49:44.302Z,99320.81
2023-01-02T08:52:17.116Z,99315.88
2023-01-02T08:54:49.862Z,99306.41
2023-01-02T08:57:22.686Z,99311.03
2023-01-02T08:59:57.060Z,99310.22
2023-01-02T09:02:30.215Z,99304.53
2023-01-02T09:05:03.162Z,99305.09
2023-01-02T09:07:35.946Z,99307.19
2023-01-02T09:10:09.639Z,99315.06
2023-01-02T09:12:42.392Z,99317.09
2023-01-02T09:15:16.675Z,99317.00
2023-01-02T09:17:49.563Z,99327.97
2023-01-02T09:20:22.347Z,99325.50
2023-01-02T09:22:55.137Z,99324.75
2023-01-02T09:25:27.892Z,99333.66
2023-01-02T09:28:00.806Z,99335.44
2023-01-02T09:30:34.902Z,99341.22
2023-01-02T09:33:08.959Z,99341.19
2023-01-02T09:35:41.746Z,99335.59
2023-01-02T09:38:14.728Z,99327.47
2023-01-02T09:40:50.302Z,99337.19
2023-01-02T09:43:31.943Z,99333.63
2023-01-02T09:46:08.321Z,99329.47
2023-01-02T09:48:41.202Z,99337.63
2023-01-02T09:51:14.221Z,99340.88
2023-01-02T09:53:47.342Z,99334.75
2023-01-02T09:56:30.363Z,99340.03
2023-01-02T09:59:14.090Z,99339.50
2023-01-02T10:01:57.318Z,99350.34
2023-01-02T10:04:47.994Z,99356.13
2023-01-02T10:07:24.467Z,99352.16
2023-01-02T10:10:03.944Z,99361.13
2023-01-02T10:12:42.721Z,99360.41
2023-01-02T10:15:21.081Z,99362.34
2023-01-02T10:17:59.609Z,99352.56
2023-01-02T10:20:40.112Z,99363.88
2023-01-02T10:23:14.541Z,99367.72
2023-01-02T10:25:53.107Z,99368.56
2023-01-02T10:28:35.887Z,99358.72
2023-01-02T10:31:15.622Z,99365.31
2023-01-02T10:33:55.082Z,99378.94
2023-01-02T10:36:31.032Z,99379.97
2023-01-02T10:39:07.197Z,99382.66
2023-01-02T10:41:41.022Z,99392.13
2023-01-02T10:44:25.967Z,99387.59
2023-01-02T10:47:00.553Z,99387.06
2023-01-02T10:49:37.778Z,99367.63
2023-01-02T10:52:16.665Z,99368.97
2023-01-02T10:54:58.552Z,99361.13
2023-01-02T10:57:40.151Z,99365.47
2023-01-02T11:00:30.354Z,99369.69
2023-01-02T11:03:09.105Z,99375.56
2023-01-02T11:05:48.993Z,99381.56
2023-01-02T11:08:24.323Z,99380.44
2023-01-02T11:10:57.161Z,99377.31
2023-01-02T11:13:50.467Z,99374.22
2023-01-02T11:16:28.041Z,99384.84
2023-01-02T11:19:02.117Z,99386.47
2023-01-02T11:21:39.988Z,99375.25
2023-01-02T11:24:16.860Z,99371.66
2023-01-02T11:26:52.843Z,99375.44
2023-01-02T11:29:30.823Z,99367.63
2023-01-02T11:32:05.366Z,99373.78
2023-01-02T11:34:40.627Z,99378.81
2023-01-02T11:37:18.213Z,99371.00
2023-01-02T11:40:00.040Z,99370.28
2023-01-02T11:42:58.121Z,99363.88
2023-01-02T11:45:31.982Z,99364.44
2023-01-02T11:48:07.917Z,99373.19
2023-01-02T11:50:41.279Z,99373.19
2023-01-02T11:53:22.000Z,99370.59
2023-01-02T11:55:57.844Z,99373.28
2023-01-02T11:58:38.503Z,99378.75
2023-01-02T12:01:19.126Z,99381.34
2023-01-02T12:03:52.185Z,99381.75
2023-01-02T12:06:33.424Z,99392.06
2023-01-02T12:09:12.319Z,99398.09
2023-01-02T12:12:02.932Z,99402.19
2023-01-02T12:14:54.388Z,99403.28
2023-01-02T12:17:38.407Z,99396.78
2023-01-02T12:20:25.356Z,99411.28
2023-01-02T12:23:28.867Z,99404.44
2023-01-02T12:26:10.054Z,99395.44
2023-01-02T12:28:59.041Z,99389.59
2023-01-02T12:31:49.580Z,99407.31
2023-01-02T12:34:39.567Z,99401.69
2023-01-02T12:37:25.760Z,99400.81
2023-01-02T12:40:11.033Z,99397.09
2023-01-02T12:43:10.111Z,99398.22
2023-01-02T12:45:52.006Z,99403.19
2023-01-02T12:48:38.284Z,99393.09
2023-01-02T12:51:18.497Z,99387.31
2023-01-02T12:54:18.883Z,99393.34
2023-01-02T12:57:03.776Z,99399.41
2023-01-02T13:00:02.467Z,99394.34
2023-01-02T13:02:52.038Z,99406.84
2023-01-02T13:05:33.496Z,99398.16
2023-01-02T13:08:14.949Z,99394.31
2023-01-02T13:10:49.119Z,99401.34
2023-01-02T13:13:26.627Z,99388.88
2023-01-02T13:16:11.372Z,99390.09
2023-01-02T13:19:01.264Z,99400.34
2023-01-02T13:21:39.450Z,99410.50
2023-01-02T13:24:16.746Z,99395.19
2023-01-02T13:26:50.246Z,99411.56
2023-01-02T13:29:29.374Z,99419.78
2023-01-02T13:32:03.576Z,99413.75
2023-01-02T13:34:41.018Z,99420.97
2023-01-02T13:37:17.751Z,99417.16
2023-01-02T13:39:53.823Z,99400.16
2023-01-02T13:42:46.941Z,99411.88
2023-01-02T13:45:24.797Z,99422.94
2023-01-02T13:48:01.319Z,99424.97
2023-01-02T13:50:36.265Z,99427.41
2023-01-02T13:53:27.540Z,99426.41
2023-01-02T13:56:07.841Z,99435.28
2023-01-02T13:58:49.410Z,99432.59
2023-01-02T14:01:42.722Z,99424.16
2023-01-02T14:04:33.065Z,99439.69
2023-01-02T14:07:46.225Z,99443.94
2023-01-02T14:10:34.476Z,99441.47
2023-01-02T14:13:13.312Z,99442.25
2023-01-02T14:16:15.906Z,99453.63
2023-01-02T14:19:04.612Z,99452.59
2023-01-02T14:21:43.334Z,99455.53
2023-01-02T14:24:30.132Z,99465.75
2023-01-02T14:27:05.637Z,99461.81
2023-01-02T14:29:50.620Z,99466.19
2023-01-02T14:32:37.687Z,99469.81
2023-01-02T14:35:27.058Z,99475.53
2023-01-02T14:38:17.176Z,99476.22
2023-01-02T14:40:50.685Z,99484.41
2023-01-02T14:43:31.827Z,99479.47
2023-01-02T14:46:11.321Z,99477.78
2023-01-02T14:48:52.841Z,99488.56
2023-01-02T14:51:33.194Z,99498.22
2023-01-02T14:54:16.533Z,99497.22
2023-01-02T14:56:54.006Z,99498.88
2023-01-02T14:59:31.426Z,99506.84
2023-01-02T15:02:07.787Z,99515.63
2023-01-02T15:04:45.895Z,99509.53
2023-01-02T15:07:26.392Z,99501.13
2023-01-02T15:10:02.971Z,99512.16
2023-01-02T15:13:01.767Z,99505.84
2023-01-02T15:15:39.459Z,99509.22
2023-01-02T15:18:18.884Z,99509.22
2023-01-02T15:20:52.039Z,99524.25
2023-01-02T15:23:27.307Z,99517.81
2023-01-02T15:26:33.405Z,99521.84
2023-01-02T15:28:59.399Z,99528.59
2023-01-02T15:31:32.530Z,99523.69
2023-01-02T15:34:05.374Z,99526.19
2023-01-02T15:36:40.896Z,99532.41
2023-01-02T15:39:17.857Z,99531.78
2023-01-02T15:41:55.151Z,99532.84
2023-01-02T15:44:48.368Z,99524.78
2023-01-02T15:47:27.533Z,99530.91
2023-01-02T15:50:01.641Z,99544.25
2023-01-02T15:52:34.643Z,99549.34
2023-01-02T15:55:15.120Z,99531.63
2023-01-02T15:57:50.094Z,99546.44
2023-01-02T16:00:34.683Z,99552.56
2023-01-02T16:03:08.447Z,99549.69
2023-01-02T16:05:47.356Z,99551.34
2023-01-02T16:08:23.017Z,99554.16
2023-01-02T16:11:02.057Z,99556.63
2023-01-02T16:14:02.164Z,99551.06
2023-01-02T16:16:46.571Z,99560.25
2023-01-02T16:19:25.668Z,99556.75
2023-01-02T16:22:05.385Z,99548.63
2023-01-02T16:24:44.813Z,99562.63
2023-01-02T16:27:26.254Z,99558.34
2023-01-02T16:30:00.780Z,99566.13
2023-01-02T16:32:34.112Z,99567.44
2023-01-02T16:35:21.192Z,99579.75
2023-01-02T16:37:56.576Z,99579.25
2023-01-02T16:41:00.268Z,99578.84
2023-01-02T16:43:43.119Z,99575.97
2023-01-02T16:46:17.837Z,99588.47
2023-01-02T16:48:50.638Z,99571.94
2023-01-02T16:51:23.602Z,99590.13
2023-01-02T16:53:56.533Z,99591.72
2023-01-02T16:56:29.443Z,99580.06
2023-01-02T16:59:02.353Z,99593.81
2023-01-02T17:01:36.980Z,99584.03
2023-01-02T17:04:12.821Z,99596.31
2023-01-02T17:06:45.598Z,99585.84
2023-01-02T17:09:18.359Z,99597.31
2023-01-02T17:12:00.907Z,99594.22
2023-01-02T17:14:34.506Z,99605.22
2023-01-02T17:17:08.602Z,99594.66
2023-01-02T17:19:41.361Z,99597.41
2023-01-02T17:22:14.146Z,99604.03
2023-01-02T17:24:47.052Z,99607.00
2023-01-02T17:27:21.727Z,99617.38
2023-01-02T17:29:54.901Z,99620.13
2023-01-02T17:32:29.052Z,99628.78
2023-01-02T17:35:01.863Z,99641.16
2023-01-02T17:37:34.750Z,99646.53
2023-01-02T17:40:09.870Z,99653.75
2023-01-02T17:42:42.692Z,99673.72
2023-01-02T17:45:15.478Z,99662.28
2023-01-02T17:48:11.177Z,99669.84
2023-01-02T17:50:42.502Z,99672.75
2023-01-02T17:53:15.279Z,99666.66
2023-01-02T17:55:51.895Z,99669.34
2023-01-02T17:58:45.140Z,99667.53
2023-01-02T18:01:20.274Z,99684.13
2023-01-02T18:03:54.520Z,99675.81
2023-01-02T18:06:27.421Z,99676.22
2023-01-02T18:09:00.410Z,99680.25
2023-01-02T18:11:35.196Z,99671.97
2023-01-02T18:14:18.322Z,99700.00
2023-01-02T18:16:51.744Z,99697.69
2023-01-02T18:19:27.646Z,99719.41
2023-01-02T18:22:00.676Z,99708.75
2023-01-02T18:24:33.683Z,99721.41
2023-01-02T18:27:20.697Z,99714.44
2023-01-02T18:29:59.093Z,99710.88
2023-01-02T18:32:35.459Z,99713.63
2023-01-02T18:35:55.615Z,99725.47
2023-01-02T18:38:20.728Z,99721.63
2023-01-02T18:40:54.168Z,99735.81
2023-01-02T18:43:29.956Z,99740.38
2023-01-02T18:46:18.234Z,99743.56
2023-01-02T18:48:52.034Z,99743.44
2023-01-02T18:51:26.177Z,99755.78
2023-01-02T18:53:59.033Z,99757.72
2023-01-02T18:56:32.297Z,99762.19
2023-01-02T18:59:15.670Z,99774.56
2023-01-02T19:01:51.394Z,99778.25
2023-01-02T19:04:28.676Z,99773.50
2023-01-02T19:07:20.562Z,99787.81
2023-01-02T19:09:57.115Z,99801.84
2023-01-02T19:12:47.610Z,99818.94
2023-01-02T19:15:42.987Z,99825.72
2023-01-02T19:18:33.569Z,99826.00
2023-01-02T19:21:16.871Z,99825.63
2023-01-02T19:23:58.036Z,99838.06
2023-01-02T19:26:36.425Z,99848.88
2023-01-02T19:29:18.410Z,99848.03
2023-01-02T19:31:54.994Z,99860.03
2023-01-02T19:34:37.114Z,99854.13
2023-01-02T19:37:24.431Z,99865.31
2023-01-02T19:40:02.112Z,99865.72
2023-01-02T19:42:35.494Z,99875.72
2023-01-02T19:45:11.806Z,99882.06
2023-01-02T19:47:44.682Z,99887.34
2023-01-02T19:50:20.262Z,99888.59
2023-01-02T19:52:53.185Z,99889.34
2023-01-02T19:55:27.336Z,99899.78
2023-01-02T19:58:00.343Z,99895.44
2023-01-02T20:00:34.386Z,99896.13
2023-01-02T20:03:07.628Z,99892.66
2023-01-02T20:05:40.507Z,99893.91
2023-01-02T20:08:13.349Z,99902.31
2023-01-02T20:10:47.652Z,99907.88
2023-01-02T20:13:20.449Z,99911.06
2023-01-02T20:15:53.365Z,99911.78
2023-01-02T20:18:26.148Z,99918.19
2023-01-02T20:20:59.078Z,99928.59
2023-01-02T20:23:31.847Z,99929.72
2023-01-02T20:26:06.825Z,99926.34
2023-01-02T20:28:39.555Z,99935.03
2023-01-02T20:31:12.376Z,99930.66
2023-01-02T20:33:45.401Z,99933.75
2023-01-02T20:36:18.283Z,99948.28
2023-01-02T20:38:52.763Z,99941.91
2023-01-02T20:41:26.949Z,99951.09
2023-01-02T20:43:59.781Z,99957.09
2023-01-02T20:46:32.676Z,99948.31
2023-01-02T20:49:06.210Z,99951.94
2023-01-02T20:51:39.239Z,99963.13
2023-01-02T20:54:12.029Z,99957.84
2023-01-02T20:56:46.232Z,99967.03
2023-01-02T20:59:19.037Z,99968.28
2023-01-02T21:01:52.003Z,99967.03
2023-01-02T21:04:34.237Z,99965.16
2023-01-02T21:07:09.535Z,99971.50
2023-01-02T21:09:42.420Z,99980.28
2023-01-02T21:12:34.174Z,99984.66
2023-01-02T21:15:07.696Z,99984.97
2023-01-02T21:17:40.497Z,99993.06
2023-01-02T21:20:13.304Z,99987.50
2023-01-02T21:22:46.106Z,99995.03
2023-01-02T21:25:18.926Z,99998.63
2023-01-02T21:27:53.098Z,100008.16
2023-01-02T21:30:25.889Z,100009.41
2023-01-02T21:32:58.719Z,100011.78
2023-01-02T21:35:31.494Z,100014.94
2023-01-02T21:38:04.785Z,100018.50
2023-01-02T21:40:37.829Z,100030.94
2023-01-02T21:43:12.720Z,100027.34
2023-01-02T21:45:45.473Z,100029.78
2023-01-02T21:48:18.462Z,100022.59
2023-01-02T21:50:51.252Z,100017.81
2023-01-02T21:53:24.062Z,100025.41
2023-01-02T21:55:56.837Z,100034.22
2023-01-02T21:58:32.488Z,100037.03
2023-01-02T22:01:05.634Z,100036.63
2023-01-02T22:03:38.510Z,100034.69
2023-01-02T22:06:11.284Z,100028.72
2023-01-02T22:08:44.112Z,100037.88
2023-01-02T22:11:35.959Z,100047.88
2023-01-02T22:14:09.987Z,100038.31
2023-01-02T22:16:43.071Z,100051.47
2023-01-02T22:19:16.152Z,100039.91
2023-01-02T22:21:49.150Z,100060.63
2023-01-02T22:24:23.719Z,100066.59
2023-01-02T22:26:58.436Z,100070.59
2023-01-02T22:30:09.496Z,100071.38
2023-01-02T22:32:27.564Z,100076.19
2023-01-02T22:35:02.560Z,100069.41
2023-01-02T22:37:35.351Z,100062.22
2023-01-02T22:40:08.999Z,100079.34
2023-01-02T22:43:02.217Z,100084.53
2023-01-02T22:45:43.830Z,100084.13
2023-01-02T22:48:20.665Z,100089.31
2023-01-02T22:50:56.052Z,100098.91
2023-01-02T22:53:30.408Z,100101.69
2023-01-02T22:56:11.717Z,100089.34
2023-01-02T22:58:44.592Z,100096.91
2023-01-02T23:01:23.548Z,100105.69
2023-01-02T23:03:56.483Z,100108.84
2023-01-02T23:06:29.914Z,100112.81
2023-01-02T23:09:02.763Z,100114.41
2023-01-02T23:11:35.656Z,100113.63
2023-01-02T23:14:09.042Z,100122.00
2023-01-02T23:17:00.779Z,100122.38
2023-01-02T23:19:33.701Z,100113.63
2023-01-02T23:22:06.572Z,100105.25
2023-01-02T23:24:40.734Z,100114.44
2023-01-02T23:27:13.925Z,100095.31
2023-01-02T23:29:46.711Z,100103.66
2023-01-02T23:32:20.870Z,100110.44
2023-01-02T23:34:53.792Z,100114.00
2023-01-02T23:37:27.355Z,100133.09
2023-01-02T23:40:00.334Z,100134.28
2023-01-02T23:42:33.146Z,100133.13
2023-01-02T23:45:06.561Z,100141.50
2023-01-02T23:47:40.798Z,100153.03
2023-01-02T23:50:15.609Z,100160.56
2023-01-02T23:52:48.441Z,100157.03
2023-01-02T23:55:21.280Z,100148.19
2023-01-02T23:57:54.116Z,100155.00
